Time;durP1;ratioP1;P1;durP2;ratioP2;P2;SDS_P1;SDS_P2;PMS_P1;PMS_P2;Temp;Humidity;BMP_temperature;BMP_pressure;BME280_temperature;BME280_humidity;BME280_pressure;Samples;Min_cycle;Max_cycle;Signal;HPM_P1;HPM_P2
2022/04/09 00:00:42;;;;;;;13.27;7.47;;;;;;;;;;5046472;28;20033;-77
2022/04/09 00:03:08;;;;;;;11.80;7.40;;;;;;;;;;5040173;28;20052;-76
2022/04/09 00:05:34;;;;;;;13.45;8.02;;;;;;;;;;5014165;28;20494;-77
2022/04/09 00:08:00;;;;;;;16.23;7.43;;;;;;;;;;5013531;28;20057;-77
2022/04/09 00:10:26;;;;;;;14.60;8.10;;;;;;;;;;5030846;28;20538;-76
2022/04/09 00:12:52;;;;;;;21.42;10.05;;;;;;;;;;5030561;28;20056;-77
2022/04/09 00:15:18;;;;;;;15.82;9.00;;;;;;;;;;5030056;28;20108;-77
2022/04/09 00:17:45;;;;;;;16.45;10.40;;;;;;;;;;5031362;28;20029;-75
2022/04/09 00:20:14;;;;;;;20.90;10.75;;;;;;;;;;5031036;28;20029;-77
2022/04/09 00:22:40;;;;;;;18.20;10.48;;;;;;;;;;5029853;28;20033;-76
2022/04/09 00:25:09;;;;;;;21.63;11.07;;;;;;;;;;5028846;28;20033;-77
2022/04/09 00:27:35;;;;;;;22.55;11.63;;;;;;;;;;5030133;28;20364;-77
2022/04/09 00:30:07;;;;;;;19.52;11.38;;;;;;;;;;5030259;28;20029;-78
2022/04/09 00:32:33;;;;;;;20.90;12.05;;;;;;;;;;5030481;28;20033;-77
2022/04/09 00:34:59;;;;;;;21.70;11.55;;;;;;;;;;5011832;28;20037;-77
2022/04/09 00:37:25;;;;;;;23.38;12.20;;;;;;;;;;4993073;28;20049;-77
2022/04/09 00:39:52;;;;;;;19.88;12.20;;;;;;;;;;5011604;28;20029;-77
2022/04/09 00:42:18;;;;;;;19.70;11.77;;;;;;;;;;5011268;28;20036;-77
2022/04/09 00:44:45;;;;;;;21.92;12.77;;;;;;;;;;5011331;28;20471;-77
2022/04/09 00:47:11;;;;;;;24.40;12.85;;;;;;;;;;5010988;28;20049;-76
2022/04/09 00:49:39;;;;;;;25.23;13.00;;;;;;;;;;5011465;28;20034;-77
2022/04/09 00:52:07;;;;;;;22.70;13.13;;;;;;;;;;5011439;28;20029;-77
2022/04/09 00:54:38;;;;;;;19.40;12.45;;;;;;;;;;5011074;28;20057;-76
2022/04/09 00:57:05;;;;;;;21.40;12.45;;;;;;;;;;5010979;28;20037;-76
2022/04/09 00:59:36;;;;;;;20.20;12.70;;;;;;;;;;5011216;28;20045;-78
2022/04/09 01:02:02;;;;;;;21.53;11.70;;;;;;;;;;4993601;28;20052;-76
2022/04/09 01:04:30;;;;;;;20.85;12.27;;;;;;;;;;5010832;28;20045;-77
2022/04/09 01:06:56;;;;;;;23.48;12.48;;;;;;;;;;5010545;28;20040;-77
2022/04/09 01:09:22;;;;;;;23.02;12.88;;;;;;;;;;5010097;28;20032;-77
2022/04/09 01:11:49;;;;;;;20.17;12.05;;;;;;;;;;5008941;28;20117;-79
2022/04/09 01:14:15;;;;;;;24.92;12.98;;;;;;;;;;5018277;28;20437;-77
2022/04/09 01:16:40;;;;;;;26.73;13.52;;;;;;;;;;5029141;28;20025;-75
2022/04/09 01:19:06;;;;;;;22.73;12.63;;;;;;;;;;5029292;28;20053;-76
2022/04/09 01:21:33;;;;;;;24.55;13.18;;;;;;;;;;5029860;28;20132;-76
2022/04/09 01:24:01;;;;;;;24.38;13.93;;;;;;;;;;5029838;28;20307;-77
2022/04/09 01:26:26;;;;;;;23.35;13.80;;;;;;;;;;5030443;28;20029;-77
2022/04/09 01:28:52;;;;;;;24.40;14.70;;;;;;;;;;5030529;28;20135;-76
2022/04/09 01:31:18;;;;;;;24.52;13.90;;;;;;;;;;5032537;28;20029;-77
2022/04/09 01:33:45;;;;;;;22.77;14.27;;;;;;;;;;5051512;28;20037;-77
2022/04/09 01:36:11;;;;;;;21.85;13.55;;;;;;;;;;5053100;28;20022;-77
2022/04/09 01:38:37;;;;;;;24.23;13.85;;;;;;;;;;5050105;28;20053;-77
2022/04/09 01:41:04;;;;;;;20.70;12.32;;;;;;;;;;5054142;28;20017;-76
2022/04/09 01:43:30;;;;;;;25.50;13.82;;;;;;;;;;5054194;28;20029;-75
2022/04/09 01:45:56;;;;;;;27.85;14.13;;;;;;;;;;5053957;28;20053;-75
2022/04/09 01:48:24;;;;;;;22.80;14.25;;;;;;;;;;5050675;28;20029;-77
2022/04/09 01:50:50;;;;;;;27.13;15.00;;;;;;;;;;5054065;28;20013;-77
2022/04/09 01:53:16;;;;;;;27.45;13.80;;;;;;;;;;5053574;28;20040;-77
2022/04/09 01:55:43;;;;;;;23.33;14.23;;;;;;;;;;5053315;28;20029;-77
2022/04/09 01:58:09;;;;;;;23.60;13.85;;;;;;;;;;5053973;28;20013;-76
2022/04/09 02:00:35;;;;;;;20.65;12.07;;;;;;;;;;5053602;28;20600;-75
2022/04/09 02:03:01;;;;;;;19.92;12.07;;;;;;;;;;5053512;28;20043;-78
2022/04/09 02:05:27;;;;;;;21.95;11.32;;;;;;;;;;5053678;28;20010;-78
2022/04/09 02:07:53;;;;;;;20.42;12.60;;;;;;;;;;5053022;28;20120;-77
2022/04/09 02:10:19;;;;;;;20.98;10.38;;;;;;;;;;5053010;28;20067;-77
2022/04/09 02:12:47;;;;;;;18.38;11.18;;;;;;;;;;5031617;28;20045;-77
2022/04/09 02:15:16;;;;;;;20.75;10.93;;;;;;;;;;5041186;28;20026;-78
2022/04/09 02:17:43;;;;;;;20.10;10.07;;;;;;;;;;5035647;28;20033;-78
2022/04/09 02:20:11;;;;;;;16.77;9.80;;;;;;;;;;5052731;28;20025;-77
2022/04/09 02:22:39;;;;;;;18.10;9.45;;;;;;;;;;5052679;28;20091;-76
2022/04/09 02:25:14;;;;;;;19.35;9.75;;;;;;;;;;5053560;28;20040;-78
2022/04/09 02:27:40;;;;;;;17.95;8.77;;;;;;;;;;5035172;28;20047;-77
2022/04/09 02:30:09;;;;;;;19.10;8.13;;;;;;;;;;5053195;28;20035;-77
2022/04/09 02:32:45;;;;;;;14.70;7.28;;;;;;;;;;5033360;28;20041;-78
2022/04/09 02:35:12;;;;;;;16.48;7.28;;;;;;;;;;5052678;28;20026;-78
2022/04/09 02:37:39;;;;;;;13.93;8.13;;;;;;;;;;5053112;28;20040;-78
2022/04/09 02:40:06;;;;;;;15.05;7.03;;;;;;;;;;5053170;28;20033;-76
2022/04/09 02:42:31;;;;;;;16.50;7.93;;;;;;;;;;5052968;28;20013;-77
2022/04/09 02:44:57;;;;;;;14.57;7.88;;;;;;;;;;5052602;28;20029;-77
2022/04/09 02:47:23;;;;;;;16.63;7.75;;;;;;;;;;5052319;28;20036;-77
2022/04/09 02:49:49;;;;;;;14.05;8.15;;;;;;;;;;5052156;28;20021;-78
2022/04/09 02:52:15;;;;;;;13.98;7.32;;;;;;;;;;5052524;28;20036;-76
2022/04/09 02:54:41;;;;;;;17.90;7.90;;;;;;;;;;5051870;28;20097;-77
2022/04/09 02:57:07;;;;;;;18.42;8.48;;;;;;;;;;5052109;28;20022;-77
2022/04/09 02:59:32;;;;;;;14.82;6.93;;;;;;;;;;5045928;28;20037;-78
2022/04/09 03:01:58;;;;;;;15.82;7.43;;;;;;;;;;5034672;28;20025;-77
2022/04/09 03:04:24;;;;;;;14.05;7.22;;;;;;;;;;5043616;28;20006;-77
2022/04/09 03:06:50;;;;;;;19.15;7.47;;;;;;;;;;5052632;28;20385;-78
2022/04/09 03:09:16;;;;;;;13.90;7.53;;;;;;;;;;5052282;28;20045;-78
2022/04/09 03:11:42;;;;;;;15.43;9.50;;;;;;;;;;5051502;28;20017;-79
2022/04/09 03:14:08;;;;;;;19.60;8.07;;;;;;;;;;5051548;28;20288;-76
2022/04/09 03:16:34;;;;;;;15.50;6.47;;;;;;;;;;5052315;28;20025;-77
2022/04/09 03:19:00;;;;;;;11.88;6.40;;;;;;;;;;5052560;28;20037;-77
2022/04/09 03:21:26;;;;;;;13.38;6.50;;;;;;;;;;5051980;28;20025;-76
2022/04/09 03:23:51;;;;;;;13.43;6.70;;;;;;;;;;5034537;28;20041;-78
2022/04/09 03:26:18;;;;;;;15.57;6.35;;;;;;;;;;5053114;28;20030;-78
2022/04/09 03:28:44;;;;;;;18.15;6.13;;;;;;;;;;5053078;28;20018;-77
2022/04/09 03:31:09;;;;;;;16.75;6.78;;;;;;;;;;5053167;28;20028;-79
2022/04/09 03:33:35;;;;;;;16.55;6.13;;;;;;;;;;5048900;28;20625;-77
2022/04/09 03:36:02;;;;;;;13.93;5.85;;;;;;;;;;5033316;28;20013;-79
2022/04/09 03:38:28;;;;;;;13.75;5.70;;;;;;;;;;5032782;28;20044;-78
2022/04/09 03:40:53;;;;;;;9.45;4.43;;;;;;;;;;5035457;28;20006;-78
2022/04/09 03:43:19;;;;;;;13.35;4.20;;;;;;;;;;5032361;28;20034;-78
2022/04/09 03:45:45;;;;;;;10.13;4.68;;;;;;;;;;5032497;28;20373;-78
2022/04/09 03:48:11;;;;;;;11.77;4.82;;;;;;;;;;5032377;28;20041;-78
2022/04/09 03:50:37;;;;;;;13.70;4.72;;;;;;;;;;5032954;28;20022;-78
2022/04/09 03:53:03;;;;;;;16.42;7.53;;;;;;;;;;5024429;28;20040;-77
2022/04/09 03:55:29;;;;;;;15.32;4.13;;;;;;;;;;5016042;28;20044;-80
2022/04/09 03:58:03;;;;;;;10.50;3.45;;;;;;;;;;5013719;28;20030;-78
2022/04/09 04:00:29;;;;;;;9.77;3.72;;;;;;;;;;4995882;28;20388;-77
2022/04/09 04:02:57;;;;;;;10.48;4.15;;;;;;;;;;5012977;28;20064;-77
2022/04/09 04:05:22;;;;;;;13.68;3.90;;;;;;;;;;4995393;28;20050;-78
2022/04/09 04:07:48;;;;;;;15.57;3.78;;;;;;;;;;5013520;28;20065;-77
2022/04/09 04:10:14;;;;;;;15.13;3.95;;;;;;;;;;4995138;28;20077;-78
2022/04/09 04:12:40;;;;;;;14.18;4.28;;;;;;;;;;5012038;28;20530;-78
2022/04/09 04:15:08;;;;;;;12.45;3.63;;;;;;;;;;5028012;28;20033;-77
2022/04/09 04:17:40;;;;;;;11.18;5.05;;;;;;;;;;5031795;28;20022;-77
2022/04/09 04:20:07;;;;;;;15.80;3.97;;;;;;;;;;5032825;28;20036;-78
2022/04/09 04:22:33;;;;;;;13.25;3.10;;;;;;;;;;5033161;28;20040;-77
2022/04/09 04:24:59;;;;;;;9.77;2.95;;;;;;;;;;5032192;28;20067;-78
2022/04/09 04:27:25;;;;;;;7.07;2.75;;;;;;;;;;5031905;28;20048;-78
2022/04/09 04:29:51;;;;;;;14.48;3.25;;;;;;;;;;5031936;28;20025;-78
2022/04/09 04:32:16;;;;;;;8.05;2.85;;;;;;;;;;5031638;28;20060;-78
2022/04/09 04:34:42;;;;;;;14.85;3.75;;;;;;;;;;5035172;28;20040;-76
2022/04/09 04:37:08;;;;;;;10.70;3.90;;;;;;;;;;5035423;28;20657;-78
2022/04/09 04:39:34;;;;;;;12.43;4.25;;;;;;;;;;5035875;28;20025;-75
2022/04/09 04:42:00;;;;;;;10.15;4.43;;;;;;;;;;5036617;28;20025;-76
2022/04/09 04:44:26;;;;;;;14.93;4.13;;;;;;;;;;5045271;28;20067;-78
2022/04/09 04:46:52;;;;;;;9.57;4.20;;;;;;;;;;5037010;28;20057;-77
2022/04/09 04:49:17;;;;;;;9.77;4.13;;;;;;;;;;5034080;28;20029;-78
2022/04/09 04:51:43;;;;;;;11.05;4.35;;;;;;;;;;5034620;28;20221;-78
2022/04/09 04:54:09;;;;;;;11.50;4.35;;;;;;;;;;5039851;28;20501;-77
2022/04/09 04:56:35;;;;;;;17.77;3.55;;;;;;;;;;5042080;28;20020;-77
2022/04/09 04:59:01;;;;;;;12.63;3.35;;;;;;;;;;5041329;22;20301;-75
2022/04/09 05:01:27;;;;;;;10.10;3.17;;;;;;;;;;5044412;28;20033;-76
2022/04/09 05:03:53;;;;;;;13.75;3.60;;;;;;;;;;5050352;28;20056;-74
2022/04/09 05:06:20;;;;;;;10.52;3.63;;;;;;;;;;5051201;28;20040;-66
2022/04/09 05:08:45;;;;;;;14.50;3.30;;;;;;;;;;5046745;28;20371;-75
2022/04/09 05:11:11;;;;;;;12.95;2.80;;;;;;;;;;5036368;28;20072;-76
2022/04/09 05:13:37;;;;;;;11.60;3.50;;;;;;;;;;5033600;28;20416;-74
2022/04/09 05:16:03;;;;;;;13.52;3.58;;;;;;;;;;5039396;28;20065;-76
2022/04/09 05:18:29;;;;;;;9.05;3.20;;;;;;;;;;5039360;28;20040;-74
2022/04/09 05:20:55;;;;;;;15.73;5.15;;;;;;;;;;5036393;28;20045;-74
2022/04/09 05:23:21;;;;;;;14.18;3.60;;;;;;;;;;5040891;28;20049;-75
2022/04/09 05:25:47;;;;;;;9.68;3.22;;;;;;;;;;5038103;28;20064;-75
2022/04/09 05:28:13;;;;;;;10.63;3.88;;;;;;;;;;5040877;28;20030;-76
2022/04/09 05:30:43;;;;;;;14.20;3.60;;;;;;;;;;5038772;28;20017;-77
2022/04/09 05:33:09;;;;;;;10.15;3.13;;;;;;;;;;5039690;28;20024;-74
2022/04/09 05:35:36;;;;;;;10.82;3.25;;;;;;;;;;5040732;28;20036;-75
2022/04/09 05:38:03;;;;;;;8.63;3.08;;;;;;;;;;5039137;28;20459;-75
2022/04/09 05:40:29;;;;;;;9.55;3.22;;;;;;;;;;5038696;28;20471;-75
2022/04/09 05:42:55;;;;;;;11.32;2.83;;;;;;;;;;5038590;28;20036;-75
2022/04/09 05:45:21;;;;;;;13.10;3.80;;;;;;;;;;5030480;28;20021;-76
2022/04/09 05:47:47;;;;;;;10.68;3.00;;;;;;;;;;5028602;28;20043;-75
2022/04/09 05:50:14;;;;;;;12.10;3.15;;;;;;;;;;5039493;28;20028;-75
2022/04/09 05:52:41;;;;;;;7.55;2.58;;;;;;;;;;5038381;28;20493;-76
2022/04/09 05:55:07;;;;;;;8.82;3.20;;;;;;;;;;5039102;28;20041;-76
2022/04/09 05:57:34;;;;;;;9.52;2.72;;;;;;;;;;5039571;28;20466;-75
2022/04/09 06:00:00;;;;;;;8.45;2.97;;;;;;;;;;5049540;28;20108;-77
2022/04/09 06:02:26;;;;;;;11.23;2.83;;;;;;;;;;5049723;28;20029;-75
2022/04/09 06:04:52;;;;;;;9.18;2.67;;;;;;;;;;5049494;28;20450;-76
2022/04/09 06:07:18;;;;;;;9.88;2.42;;;;;;;;;;5049542;28;20087;-76
2022/04/09 06:09:44;;;;;;;9.13;2.80;;;;;;;;;;5049158;28;20492;-76
2022/04/09 06:12:11;;;;;;;8.30;2.58;;;;;;;;;;5049575;28;20040;-74
2022/04/09 06:14:37;;;;;;;6.80;2.53;;;;;;;;;;5037709;28;20026;-76
2022/04/09 06:17:03;;;;;;;11.90;3.20;;;;;;;;;;5027741;28;20436;-75
2022/04/09 06:19:29;;;;;;;8.45;2.70;;;;;;;;;;5028835;28;20028;-75
2022/04/09 06:21:56;;;;;;;8.85;2.88;;;;;;;;;;5028754;28;20021;-76
2022/04/09 06:24:22;;;;;;;9.07;2.95;;;;;;;;;;5029391;28;20037;-74
2022/04/09 06:26:48;;;;;;;7.88;2.75;;;;;;;;;;5028764;28;20056;-75
2022/04/09 06:29:14;;;;;;;11.68;2.65;;;;;;;;;;5028779;28;20101;-75
2022/04/09 06:31:40;;;;;;;14.05;3.05;;;;;;;;;;5027226;28;20033;-75
2022/04/09 06:34:06;;;;;;;12.82;5.40;;;;;;;;;;5028756;28;20107;-77
2022/04/09 06:36:32;;;;;;;11.98;3.53;;;;;;;;;;5028592;28;20061;-76
2022/04/09 06:38:57;;;;;;;11.50;3.17;;;;;;;;;;5028562;28;20037;-76
2022/04/09 06:41:25;;;;;;;8.10;2.60;;;;;;;;;;5028587;28;20486;-75
2022/04/09 06:43:53;;;;;;;7.40;2.47;;;;;;;;;;5027926;28;20026;-75
2022/04/09 06:46:19;;;;;;;6.43;2.50;;;;;;;;;;5028608;28;20021;-76
2022/04/09 06:48:45;;;;;;;11.23;3.10;;;;;;;;;;5028477;28;20064;-76
2022/04/09 06:51:11;;;;;;;8.63;3.05;;;;;;;;;;5028927;28;20061;-76
2022/04/09 06:53:38;;;;;;;9.70;2.67;;;;;;;;;;5026870;28;20042;-76
2022/04/09 06:56:04;;;;;;;9.02;3.00;;;;;;;;;;5012487;28;20033;-74
2022/04/09 06:58:30;;;;;;;11.25;2.90;;;;;;;;;;5026219;28;20036;-75
2022/04/09 07:00:56;;;;;;;9.75;2.47;;;;;;;;;;5028139;28;20052;-74
2022/04/09 07:03:22;;;;;;;6.55;2.42;;;;;;;;;;5028070;28;20053;-74
2022/04/09 07:05:48;;;;;;;9.35;3.00;;;;;;;;;;5024819;28;20076;-74
2022/04/09 07:08:14;;;;;;;7.30;2.45;;;;;;;;;;5018255;28;22145;-74
2022/04/09 07:10:39;;;;;;;8.57;3.17;;;;;;;;;;5033548;28;20061;-74
2022/04/09 07:13:06;;;;;;;17.05;8.30;;;;;;;;;;5031459;28;20139;-73
2022/04/09 07:15:32;;;;;;;13.18;5.40;;;;;;;;;;5041967;28;20025;-73
2022/04/09 07:17:58;;;;;;;8.95;2.90;;;;;;;;;;5045740;28;20037;-74
2022/04/09 07:20:24;;;;;;;10.45;2.97;;;;;;;;;;5045892;28;20029;-75
2022/04/09 07:22:50;;;;;;;9.95;2.92;;;;;;;;;;5044999;28;20075;-73
2022/04/09 07:25:19;;;;;;;9.95;2.85;;;;;;;;;;5046151;28;20029;-75
2022/04/09 07:27:48;;;;;;;12.93;3.15;;;;;;;;;;5046364;28;20032;-76
2022/04/09 07:30:18;;;;;;;9.30;3.00;;;;;;;;;;5044905;28;20036;-76
2022/04/09 07:32:45;;;;;;;8.73;2.60;;;;;;;;;;5046579;28;20025;-76
2022/04/09 07:35:12;;;;;;;13.90;4.47;;;;;;;;;;5024698;28;20064;-77
2022/04/09 07:37:46;;;;;;;26.90;14.43;;;;;;;;;;5010657;28;20452;-75
2022/04/09 07:40:14;;;;;;;9.32;2.95;;;;;;;;;;5022388;28;20033;-74
2022/04/09 07:42:42;;;;;;;10.77;2.85;;;;;;;;;;5030141;28;20021;-77
2022/04/09 07:45:09;;;;;;;7.55;2.30;;;;;;;;;;5029672;28;20025;-75
2022/04/09 07:47:35;;;;;;;10.27;2.67;;;;;;;;;;5029984;28;20025;-75
2022/04/09 07:50:03;;;;;;;8.27;2.65;;;;;;;;;;5023583;28;20732;-74
2022/04/09 07:52:29;;;;;;;6.68;2.05;;;;;;;;;;5050802;28;20032;-75
2022/04/09 07:54:57;;;;;;;9.98;2.67;;;;;;;;;;5049482;28;20512;-75
2022/04/09 07:57:26;;;;;;;8.15;2.35;;;;;;;;;;5050066;28;20641;-75
2022/04/09 07:59:59;;;;;;;13.10;2.95;;;;;;;;;;5051805;28;20103;-75
2022/04/09 08:02:27;;;;;;;7.88;2.25;;;;;;;;;;5052341;28;20144;-77
2022/04/09 08:04:56;;;;;;;11.75;2.95;;;;;;;;;;5051852;28;20029;-75
2022/04/09 08:07:22;;;;;;;10.07;2.80;;;;;;;;;;5051813;28;20025;-77
2022/04/09 08:09:47;;;;;;;6.65;2.45;;;;;;;;;;5050488;28;20473;-76
2022/04/09 08:12:26;;;;;;;10.38;2.45;;;;;;;;;;5051023;28;20073;-75
2022/04/09 08:14:52;;;;;;;10.90;2.58;;;;;;;;;;5034759;28;20060;-75
2022/04/09 08:17:20;;;;;;;8.35;2.47;;;;;;;;;;5030005;28;20040;-76
2022/04/09 08:19:47;;;;;;;7.30;2.00;;;;;;;;;;5030582;28;20025;-75
2022/04/09 08:22:13;;;;;;;9.52;2.30;;;;;;;;;;5029549;28;20033;-75
2022/04/09 08:24:41;;;;;;;11.73;2.30;;;;;;;;;;5019639;28;20471;-76
2022/04/09 08:27:08;;;;;;;9.48;2.42;;;;;;;;;;5011187;28;20045;-75
2022/04/09 08:29:35;;;;;;;7.40;2.35;;;;;;;;;;5011738;28;20029;-75
2022/04/09 08:32:04;;;;;;;6.97;2.35;;;;;;;;;;5011636;28;20030;-75
2022/04/09 08:34:35;;;;;;;8.68;2.83;;;;;;;;;;5010145;28;20029;-76
2022/04/09 08:37:01;;;;;;;8.63;2.53;;;;;;;;;;5010930;28;20037;-76
2022/04/09 08:39:27;;;;;;;8.23;2.22;;;;;;;;;;5010259;28;20394;-76
2022/04/09 08:41:55;;;;;;;9.07;2.22;;;;;;;;;;5009859;28;20052;-76
2022/04/09 08:44:21;;;;;;;7.13;2.00;;;;;;;;;;5011175;28;20034;-76
2022/04/09 08:46:47;;;;;;;11.00;2.47;;;;;;;;;;5009816;28;20029;-75
2022/04/09 08:49:14;;;;;;;11.82;3.58;;;;;;;;;;5010895;28;20064;-75
2022/04/09 08:51:40;;;;;;;6.65;1.98;;;;;;;;;;5011240;28;20565;-75
2022/04/09 08:54:08;;;;;;;8.10;2.17;;;;;;;;;;5009716;28;20117;-74
2022/04/09 08:56:34;;;;;;;12.55;2.40;;;;;;;;;;5010889;28;20034;-77
2022/04/09 08:59:01;;;;;;;11.23;3.78;;;;;;;;;;5011460;28;20025;-76
2022/04/09 09:01:28;;;;;;;8.70;2.63;;;;;;;;;;5012817;28;20029;-76
2022/04/09 09:03:55;;;;;;;9.07;2.30;;;;;;;;;;5030792;28;20041;-76
2022/04/09 09:06:31;;;;;;;9.75;2.53;;;;;;;;;;5030153;28;20029;-76
2022/04/09 09:08:59;;;;;;;10.82;2.60;;;;;;;;;;5031269;28;20032;-76
2022/04/09 09:11:29;;;;;;;11.77;2.50;;;;;;;;;;5033688;28;20029;-76
2022/04/09 09:14:00;;;;;;;10.70;2.07;;;;;;;;;;5032554;28;20025;-76
2022/04/09 09:16:31;;;;;;;7.30;2.58;;;;;;;;;;5026126;28;20821;-76
2022/04/09 09:19:09;;;;;;;9.13;2.28;;;;;;;;;;5032676;28;20473;-77
2022/04/09 09:21:35;;;;;;;7.25;2.20;;;;;;;;;;5017767;28;20372;-77
2022/04/09 09:24:07;;;;;;;8.18;2.35;;;;;;;;;;5010104;28;20080;-76
2022/04/09 09:26:40;;;;;;;6.55;2.20;;;;;;;;;;5011596;28;20036;-76
2022/04/09 09:29:08;;;;;;;8.65;2.13;;;;;;;;;;5011752;28;20034;-76
2022/04/09 09:31:45;;;;;;;8.52;2.15;;;;;;;;;;5011351;28;20056;-76
2022/04/09 09:34:16;;;;;;;12.15;2.05;;;;;;;;;;5014347;28;20024;-76
2022/04/09 09:36:43;;;;;;;7.97;2.40;;;;;;;;;;5012338;28;20030;-76
2022/04/09 09:39:13;;;;;;;8.77;2.28;;;;;;;;;;5011362;28;20053;-76
2022/04/09 09:41:56;;;;;;;6.90;2.03;;;;;;;;;;5014686;28;20489;-75
2022/04/09 09:44:23;;;;;;;9.20;2.17;;;;;;;;;;5014574;28;20029;-75
2022/04/09 09:46:51;;;;;;;8.52;2.00;;;;;;;;;;5014041;28;20045;-76
2022/04/09 09:49:20;;;;;;;6.50;2.10;;;;;;;;;;5010810;28;20474;-77
2022/04/09 09:52:09;;;;;;;7.68;2.00;;;;;;;;;;5010390;28;20486;-75
2022/04/09 09:54:58;;;;;;;8.52;2.10;;;;;;;;;;5010648;28;20379;-76
2022/04/09 09:57:28;;;;;;;8.45;2.03;;;;;;;;;;5009167;28;20030;-76
2022/04/09 10:00:01;;;;;;;9.23;2.10;;;;;;;;;;5009877;28;20048;-76
2022/04/09 10:02:27;;;;;;;8.60;1.88;;;;;;;;;;5011772;28;20033;-76
2022/04/09 10:04:54;;;;;;;5.15;1.90;;;;;;;;;;5010861;28;20030;-76
2022/04/09 10:07:20;;;;;;;5.20;1.70;;;;;;;;;;5009640;28;20036;-76
2022/04/09 10:09:49;;;;;;;7.55;2.42;;;;;;;;;;5008965;28;20060;-77
2022/04/09 10:12:20;;;;;;;7.72;1.90;;;;;;;;;;5010191;28;20040;-76
2022/04/09 10:14:50;;;;;;;;;;;;;;;;;;5023267;28;20041;-76
2022/04/09 10:17:20;;;;;;;11.98;6.70;;;;;;;;;;5030042;28;19909;-76
2022/04/09 10:19:54;;;;;;;7.43;2.40;;;;;;;;;;5030035;28;20044;-76
2022/04/09 10:22:28;;;;;;;5.30;2.00;;;;;;;;;;5032144;28;20033;-77
2022/04/09 10:24:59;;;;;;;9.02;2.17;;;;;;;;;;5028563;28;20044;-77
2022/04/09 10:27:38;;;;;;;8.00;2.00;;;;;;;;;;5029425;28;20060;-76
2022/04/09 10:30:21;;;;;;;6.90;1.92;;;;;;;;;;5029678;28;20036;-76
2022/04/09 10:32:51;;;;;;;8.15;2.45;;;;;;;;;;5029763;28;20037;-76
2022/04/09 10:35:25;;;;;;;7.28;2.22;;;;;;;;;;5029493;28;20037;-78
2022/04/09 10:38:16;;;;;;;5.10;2.03;;;;;;;;;;5029790;28;20483;-77
2022/04/09 10:40:44;;;;;;;7.10;1.73;;;;;;;;;;5029779;28;20509;-77
2022/04/09 10:43:22;;;;;;;5.97;2.03;;;;;;;;;;5029218;28;20026;-75
2022/04/09 10:46:00;;;;;;;7.15;2.58;;;;;;;;;;5029753;28;20026;-75
2022/04/09 10:48:34;;;;;;;8.48;2.25;;;;;;;;;;5028735;28;20040;-76
2022/04/09 10:51:04;;;;;;;5.97;2.63;;;;;;;;;;5030871;28;20049;-76
2022/04/09 10:53:38;;;;;;;10.30;2.20;;;;;;;;;;5028230;28;20145;-76
2022/04/09 10:56:31;;;;;;;8.02;2.00;;;;;;;;;;5030595;28;20292;-76
2022/04/09 10:59:08;;;;;;;5.72;2.10;;;;;;;;;;5040245;22;20042;-77
2022/04/09 11:01:46;;;;;;;6.43;1.50;;;;;;;;;;5007919;28;20046;-77
2022/04/09 11:04:36;;;;;;;3.35;1.08;;;;;;;;;;5008019;28;20049;-77
2022/04/09 11:07:12;;;;;;;6.28;1.70;;;;;;;;;;5009274;28;20037;-78
2022/04/09 11:09:45;;;;;;;5.82;2.70;;;;;;;;;;5012421;28;20036;-79
2022/04/09 11:12:12;;;;;;;11.13;5.75;;;;;;;;;;5013414;28;20041;-78
2022/04/09 11:14:57;;;;;;;7.15;1.50;;;;;;;;;;5025716;28;20035;-77
2022/04/09 11:17:49;;;;;;;4.07;1.00;;;;;;;;;;5032943;28;20379;-78
2022/04/09 11:20:21;;;;;;;2.88;1.40;;;;;;;;;;5030875;28;20046;-78
2022/04/09 11:22:52;;;;;;;5.40;1.20;;;;;;;;;;5032616;28;20034;-78
2022/04/09 11:25:22;;;;;;;3.08;1.30;;;;;;;;;;5033452;28;20046;-78
2022/04/09 11:27:49;;;;;;;3.28;1.20;;;;;;;;;;5032610;28;20042;-78
2022/04/09 11:30:16;;;;;;;1.88;0.98;;;;;;;;;;5031432;28;20056;-77
2022/04/09 11:32:44;;;;;;;1.75;0.90;;;;;;;;;;5032847;28;20052;-78
2022/04/09 11:35:11;;;;;;;1.80;1.00;;;;;;;;;;5018510;28;20442;-78
2022/04/09 11:37:42;;;;;;;2.28;0.90;;;;;;;;;;5012392;28;20029;-78
2022/04/09 11:40:10;;;;;;;11.60;6.35;;;;;;;;;;5012675;28;20395;-77
2022/04/09 11:42:53;;;;;;;6.95;3.00;;;;;;;;;;5012713;28;20419;-78
2022/04/09 11:45:31;;;;;;;2.38;1.30;;;;;;;;;;5012575;28;20414;-76
2022/04/09 11:47:58;;;;;;;2.45;1.17;;;;;;;;;;5010981;28;20049;-77
2022/04/09 11:50:28;;;;;;;7.20;1.52;;;;;;;;;;5012554;28;20478;-78
2022/04/09 11:52:57;;;;;;;6.10;1.48;;;;;;;;;;5012396;28;20041;-77
2022/04/09 11:55:23;;;;;;;4.53;1.30;;;;;;;;;;5012383;28;20026;-78
2022/04/09 11:57:50;;;;;;;3.65;1.30;;;;;;;;;;5012486;28;20443;-77
2022/04/09 12:00:17;;;;;;;4.93;1.40;;;;;;;;;;5012448;28;20030;-78
2022/04/09 12:02:43;;;;;;;3.60;1.05;;;;;;;;;;5012371;28;20056;-79
2022/04/09 12:05:11;;;;;;;3.75;1.15;;;;;;;;;;5012173;28;20045;-77
2022/04/09 12:07:44;;;;;;;3.85;1.40;;;;;;;;;;5012309;28;20387;-77
2022/04/09 12:10:23;;;;;;;3.85;1.42;;;;;;;;;;5011976;28;20078;-78
2022/04/09 12:13:07;;;;;;;4.72;1.52;;;;;;;;;;5011761;28;20030;-78
2022/04/09 12:15:35;;;;;;;4.68;1.73;;;;;;;;;;5031866;28;20025;-78
2022/04/09 12:18:04;;;;;;;3.80;1.48;;;;;;;;;;5030569;28;20041;-77
2022/04/09 12:20:33;;;;;;;4.95;1.42;;;;;;;;;;5031024;28;20459;-79
2022/04/09 12:23:03;;;;;;;15.75;9.02;;;;;;;;;;5031760;28;20026;-77
2022/04/09 12:25:42;;;;;;;11.30;5.30;;;;;;;;;;5032312;28;20021;-78
2022/04/09 12:28:24;;;;;;;5.45;1.83;;;;;;;;;;5030276;28;20395;-78
2022/04/09 12:30:52;;;;;;;6.85;1.50;;;;;;;;;;5029319;28;20037;-78
2022/04/09 12:33:20;;;;;;;3.70;1.40;;;;;;;;;;5010559;28;20030;-78
2022/04/09 12:35:46;;;;;;;4.55;1.70;;;;;;;;;;5007624;28;20506;-78
2022/04/09 12:38:36;;;;;;;7.38;1.88;;;;;;;;;;5009417;28;20066;-78
2022/04/09 12:41:05;;;;;;;4.75;1.60;;;;;;;;;;5010924;28;20029;-78
2022/04/09 12:43:41;;;;;;;6.82;1.60;;;;;;;;;;5011214;28;20364;-78
2022/04/09 12:46:09;;;;;;;7.43;2.30;;;;;;;;;;5003398;28;20026;-79
2022/04/09 12:48:37;;;;;;;5.82;1.90;;;;;;;;;;5011033;28;20026;-77
2022/04/09 12:51:03;;;;;;;6.72;2.10;;;;;;;;;;5011109;28;20034;-78
2022/04/09 12:53:29;;;;;;;5.57;2.15;;;;;;;;;;5011377;28;20038;-76
2022/04/09 12:55:55;;;;;;;5.53;1.75;;;;;;;;;;5011119;28;20072;-76
2022/04/09 12:58:21;;;;;;;7.18;1.88;;;;;;;;;;5006512;28;20519;-76
2022/04/09 13:00:47;;;;;;;6.22;1.70;;;;;;;;;;5010988;28;20068;-77
2022/04/09 13:03:13;;;;;;;7.65;1.73;;;;;;;;;;5011055;28;20061;-76
2022/04/09 13:05:42;;;;;;;6.10;2.00;;;;;;;;;;5010930;28;20066;-74
2022/04/09 13:08:08;;;;;;;8.05;1.63;;;;;;;;;;5007458;28;20037;-74
2022/04/09 13:10:34;;;;;;;4.85;1.70;;;;;;;;;;5010848;28;20026;-74
2022/04/09 13:13:01;;;;;;;5.85;1.65;;;;;;;;;;5008114;28;20029;-75
2022/04/09 13:15:27;;;;;;;5.60;1.58;;;;;;;;;;5010577;28;20034;-74
2022/04/09 13:17:53;;;;;;;4.82;1.80;;;;;;;;;;5010640;28;20050;-76
2022/04/09 13:20:19;;;;;;;5.70;1.75;;;;;;;;;;5010525;28;20471;-75
2022/04/09 13:22:45;;;;;;;6.28;1.95;;;;;;;;;;5010536;28;20064;-74
2022/04/09 13:25:12;;;;;;;9.25;1.85;;;;;;;;;;5007308;28;20491;-74
2022/04/09 13:27:38;;;;;;;7.57;1.70;;;;;;;;;;5004305;28;20433;-75
2022/04/09 13:30:08;;;;;;;5.38;1.80;;;;;;;;;;5009102;28;20017;-74
2022/04/09 13:32:34;;;;;;;6.40;1.80;;;;;;;;;;5008382;28;20052;-77
2022/04/09 13:35:00;;;;;;;5.35;1.73;;;;;;;;;;5010234;28;20029;-74
2022/04/09 13:37:26;;;;;;;5.68;1.80;;;;;;;;;;5010490;28;20371;-74
2022/04/09 13:39:52;;;;;;;5.90;1.50;;;;;;;;;;5009319;28;20089;-74
2022/04/09 13:42:18;;;;;;;8.40;2.00;;;;;;;;;;5010288;28;20045;-75
2022/04/09 13:44:45;;;;;;;5.93;1.50;;;;;;;;;;5009132;28;20647;-74
2022/04/09 13:47:12;;;;;;;7.80;1.92;;;;;;;;;;5009897;28;20083;-76
2022/04/09 13:49:41;;;;;;;4.97;1.65;;;;;;;;;;5009146;28;20064;-74
2022/04/09 13:52:09;;;;;;;6.07;2.05;;;;;;;;;;5010540;28;20502;-75
2022/04/09 13:54:35;;;;;;;5.95;2.00;;;;;;;;;;5010451;28;20042;-74
2022/04/09 13:57:04;;;;;;;4.93;1.77;;;;;;;;;;5010464;28;20044;-75
2022/04/09 13:59:30;;;;;;;7.70;1.88;;;;;;;;;;5009092;28;20121;-75
2022/04/09 14:01:56;;;;;;;7.78;2.17;;;;;;;;;;5010590;28;20470;-74
2022/04/09 14:04:22;;;;;;;5.47;1.63;;;;;;;;;;5008863;28;20444;-74
2022/04/09 14:06:48;;;;;;;6.93;1.88;;;;;;;;;;5010019;28;20045;-76
2022/04/09 14:09:17;;;;;;;6.70;1.95;;;;;;;;;;5010274;28;20037;-76
2022/04/09 14:11:43;;;;;;;4.97;1.60;;;;;;;;;;5010395;28;20419;-74
2022/04/09 14:14:09;;;;;;;5.53;1.75;;;;;;;;;;5018307;28;20041;-75
2022/04/09 14:16:35;;;;;;;6.95;1.55;;;;;;;;;;5030471;28;20033;-74
2022/04/09 14:19:04;;;;;;;6.05;1.80;;;;;;;;;;5030041;28;20064;-74
2022/04/09 14:21:30;;;;;;;7.72;1.92;;;;;;;;;;5030246;28;20025;-75
2022/04/09 14:23:56;;;;;;;5.82;2.03;;;;;;;;;;5029856;28;20033;-74
2022/04/09 14:26:22;;;;;;;4.90;1.85;;;;;;;;;;5029622;28;20068;-75
2022/04/09 14:28:48;;;;;;;7.35;1.70;;;;;;;;;;5029318;28;20057;-75
2022/04/09 14:31:13;;;;;;;5.15;1.65;;;;;;;;;;5020735;28;20515;-75
2022/04/09 14:33:40;;;;;;;4.63;1.52;;;;;;;;;;5007687;28;20118;-74
2022/04/09 14:36:07;;;;;;;4.85;1.60;;;;;;;;;;5007546;28;20030;-74
2022/04/09 14:38:32;;;;;;;4.35;1.60;;;;;;;;;;5003700;28;20042;-74
2022/04/09 14:40:58;;;;;;;3.10;1.50;;;;;;;;;;5017855;28;20068;-76